LGTS Airport Information

Runway Information
Runway 10 Length 11286 ft width 164 ft
Elevation 9 ft Threshold ft Heading 104
Runway 28 Length 11286 ft Width 164 ft
Elevation 19 ft Threshold ft Heading 284
Runway 16 Length 7907 ft width 197 ft
Elevation 14 ft Threshold ft Heading 166
Runway 34 Length 7907 ft Width 197 ft
Elevation 22 ft Threshold ft Heading 346
Airport Frequencies
Type A/G Name RDO Frequency 563.7 MHZ
Type APP Name APP Frequency 120.8 MHZ
Type ATIS Name ATIS Frequency 127.55 MHZ
Type CLD Name CLNC DEL Frequency 118.05 MHZ
Type GND Name GND Frequency 121.7 MHZ
Type TWR Name TWR Frequency 118.1 MHZ
Airport Navaids
Type TACAN Name Mikra Frequency 117400 KHZ
Type TACAN Name Mikra Frequency 115300 KHZ
Type VOR-DME Name Mikra Frequency 110800 KHZ
Type NDB Name Thessaloniki Frequency 345 KHZ
Type VOR-DME Name Thessaloniki Frequency 112100 KHZ
Airport Weather Information & NOTAM
ADDS - METARS form results

(1656 UTC 03 July 2022)
Data provider http://aviationweather.gov/metar/data/
 
METAR text: LGTS 031650Z 19009KT 9999 FEW030 32/15 Q1014 NOSIG
Conditions at: LGTS (THESSALONIKI/MIK, GR) observed 1650 UTC 03 July 2022
Temperature: 32.0°C (90°F)
Dewpoint: 15.0°C (59°F) [RH = 36%]
Pressure (altimeter): 29.94 inches Hg (1014.0 mb)
Winds: from the S (190 degrees) at 10 MPH (9 knots; 4.6 m/s)
Visibility: 6 or more miles (10+ km)
Ceiling: at least 12,000 feet AGL
Clouds: few clouds at 3000 feet AGL
Weather: no significant weather observed at this time

METAR text: LGTS 031620Z 20009KT 9999 FEW030 33/15 Q1014 NOSIG
Conditions at: LGTS (THESSALONIKI/MIK, GR) observed 1620 UTC 03 July 2022
Temperature: 33.0°C (91°F)
Dewpoint: 15.0°C (59°F) [RH = 34%]
Pressure (altimeter): 29.94 inches Hg (1014.0 mb)
Winds: from the SSW (200 degrees) at 10 MPH (9 knots; 4.6 m/s)
Visibility: 6 or more miles (10+ km)
Ceiling: at least 12,000 feet AGL
Clouds: few clouds at 3000 feet AGL
Weather: no significant weather observed at this time

Forecast for: LGTS (THESSALONIKI/MIK, GR)
Text: TAF LGTS 031100Z 0312/0412 17010KT 9999 FEW025
Forecast period: 1200 UTC 03 July 2022 to 1200 UTC 04 July 2022
Forecast type: FROM: standard forecast or significant change
Winds: from the S (170 degrees) at 12 MPH (10 knots; 5.1 m/s)
Visibility: 6 or more miles (10+ km)
Ceiling: at least 12,000 feet AGL
Clouds: few clouds at 2500 feet AGL
Weather: no significant weather forecast for this period
Text: PROB30
Forecast period: 1200 to 1600 UTC 03 July 2022
Forecast type: TEMPORARY: The following changes expected for less than half the time period
Visibility: missing
Ceiling: at least 12,000 feet AGL
Clouds: few clouds at 2000 feet AGL
scattered clouds at 2500 feet AGL
Weather: no significant weather forecast for this period